Date,TemperatureHighF,TemperatureAvgF,TemperatureLowF,DewpointHighF,DewpointAvgF,DewpointLowF,HumidityHigh,HumidityAvg,HumidityLow,PressureMaxIn,PressureMinIn,WindSpeedMaxMPH,WindSpeedAvgMPH,GustSpeedMaxMPH,PrecipitationSumIn
2013-9-1,89.5,76.6,66.1,75.0,69.9,64.9,98,81,55,29.84,29.74,12,1,14,0.00
2013-9-2,88.8,77.3,68.6,73.9,70.2,67.4,97,81,53,29.80,29.70,14,2,14,0.02
2013-9-3,80.8,72.5,63.4,69.9,61.3,53.4,92,70,43,29.97,29.72,19,4,19,0.00
2013-9-4,80.0,66.8,53.7,59.8,54.5,49.3,93,67,37,30.09,29.97,12,2,14,0.00
2013-9-5,79.4,67.7,57.5,63.6,55.3,46.4,90,67,41,30.14,30.02,19,4,19,0.00
2013-9-6,73.5,63.0,54.4,53.2,47.5,42.5,80,58,40,30.27,30.14,25,3,25,0.00
2013-9-7,79.8,64.7,51.2,60.9,54.4,45.8,92,71,48,30.15,29.94,12,1,14,0.00
2013-9-8,83.2,71.7,61.1,67.5,61.7,55.4,92,72,57,30.06,29.89,18,3,19,0.01
2013-9-9,75.9,66.4,57.9,64.7,55.0,44.4,89,67,49,30.20,30.06,12,2,17,0.00
2013-9-10,91.3,76.3,64.7,74.4,69.0,63.5,98,80,55,30.18,30.07,14,1,18,0.00
2013-9-11,91.3,80.2,70.3,76.1,72.3,68.3,96,78,56,30.14,29.99,11,1,11,0.00
2013-9-12,89.8,76.8,69.0,73.8,69.3,62.0,97,79,53,29.99,29.72,15,2,15,0.00
2013-9-13,70.0,65.9,62.9,62.9,59.6,53.9,91,81,59,29.80,29.70,23,3,25,0.00
2013-9-14,65.5,55.1,43.6,47.3,44.5,41.2,94,69,46,30.18,29.95,9,3,19,0.00
2013-9-15,76.1,59.6,43.8,56.5,49.7,41.7,95,72,46,30.24,30.08,6,1,11,0.00
2013-9-16,70.9,62.1,56.2,59.1,55.4,50.5,95,80,56,30.24,30.04,17,2,18,0.09
2013-9-17,68.8,56.6,45.9,52.1,42.7,36.1,81,62,33,30.44,30.24,18,3,19,0.00
2013-9-18,69.8,56.5,45.5,52.1,46.5,41.1,95,71,44,30.35,30.19,9,2,10,0.00
2013-9-19,77.6,61.8,48.5,58.9,53.0,45.8,96,75,49,30.21,30.08,10,1,10,0.00
2013-9-20,79.5,66.2,54.2,63.6,58.7,52.3,97,78,56,30.09,29.94,17,2,17,0.00
2013-9-21,68.7,63.1,59.3,63.7,60.3,58.0,98,91,77,29.96,29.67,12,3,17,0.34
2013-9-22,69.6,59.6,51.4,58.6,52.0,45.6,98,78,48,29.97,29.73,19,3,20,0.01
2013-9-23,64.1,54.5,45.0,47.0,44.1,41.7,90,69,48,30.11,29.97,16,2,18,0.00
2013-9-24,70.8,54.9,42.5,50.2,45.3,40.3,94,73,42,30.14,29.97,14,2,14,0.00
2013-9-25,76.5,60.2,47.0,51.3,45.9,42.2,91,62,35,30.01,29.89,8,1,9,0.00
2013-9-26,76.0,60.9,49.9,54.6,48.8,42.5,86,66,43,30.08,29.94,8,1,8,0.00
2013-9-27,70.2,60.2,52.9,59.6,54.4,48.6,95,82,62,30.24,30.08,8,1,8,0.00
2013-9-28,67.9,59.0,51.0,56.2,52.6,48.1,95,80,56,30.32,30.23,10,1,12,0.00
2013-9-29,72.8,59.2,47.4,58.4,51.5,46.0,98,78,48,30.23,30.07,10,1,11,0.00
2013-9-30,75.4,61.9,50.0,58.2,53.1,47.9,96,75,45,30.10,29.98,9,1,10,0.00